createdAt,value
2023-05-08T00:01:34.403Z,3.37
2023-05-08T00:04:02.076Z,4.17
2023-05-08T00:06:29.829Z,3.65
2023-05-08T00:08:57.368Z,4.40
2023-05-08T00:11:24.819Z,3.93
2023-05-08T00:13:52.228Z,3.93
2023-05-08T00:16:19.630Z,4.05
2023-05-08T00:18:47.260Z,4.10
2023-05-08T00:21:14.708Z,4.32
2023-05-08T00:23:42.148Z,4.30
2023-05-08T00:26:09.639Z,4.80
2023-05-08T00:28:37.071Z,4.67
2023-05-08T00:31:04.850Z,4.72
2023-05-08T00:33:32.421Z,4.18
2023-05-08T00:36:04.896Z,3.95
2023-05-08T00:38:34.607Z,3.88
2023-05-08T00:41:02.876Z,4.50
2023-05-08T00:43:30.344Z,4.65
2023-05-08T00:46:01.492Z,3.90
2023-05-08T00:48:34.445Z,3.45
2023-05-08T00:51:05.284Z,3.70
2023-05-08T00:53:37.996Z,4.07
2023-05-08T00:56:07.344Z,3.85
2023-05-08T00:58:34.800Z,3.33
2023-05-08T01:01:02.605Z,3.97
2023-05-08T01:03:31.336Z,3.05
2023-05-08T01:05:59.112Z,3.40
2023-05-08T01:08:26.534Z,2.92
2023-05-08T01:11:23.072Z,3.30
2023-05-08T01:14:50.861Z,3.08
2023-05-08T01:17:28.238Z,3.42
2023-05-08T01:20:27.682Z,3.00
2023-05-08T01:23:33.458Z,3.55
2023-05-08T01:26:58.559Z,3.40
2023-05-08T01:29:53.386Z,3.10
2023-05-08T01:32:43.152Z,2.85
2023-05-08T01:35:29.425Z,2.90
2023-05-08T01:38:13.393Z,2.67
2023-05-08T01:40:53.986Z,2.67
2023-05-08T01:43:50.347Z,3.45
2023-05-08T01:46:24.317Z,2.90
2023-05-08T01:49:16.728Z,3.58
2023-05-08T01:51:49.297Z,3.67
2023-05-08T01:54:24.615Z,3.00
2023-05-08T01:56:56.589Z,3.10
2023-05-08T01:59:27.012Z,3.08
2023-05-08T02:01:57.621Z,3.72
2023-05-08T02:04:27.955Z,3.83
2023-05-08T02:06:57.343Z,3.70
2023-05-08T02:09:27.668Z,3.65
2023-05-08T02:11:55.858Z,3.55
2023-05-08T02:14:25.600Z,3.28
2023-05-08T02:16:55.955Z,3.65
2023-05-08T02:19:26.577Z,2.95
2023-05-08T02:21:56.746Z,3.15
2023-05-08T02:24:25.464Z,3.50
2023-05-08T02:26:54.786Z,3.53
2023-05-08T02:29:24.372Z,3.80
2023-05-08T02:31:54.336Z,3.58
2023-05-08T02:34:24.611Z,4.00
2023-05-08T02:36:54.006Z,4.20
2023-05-08T02:39:25.575Z,4.03
2023-05-08T02:41:53.624Z,4.40
2023-05-08T02:44:22.072Z,3.97
2023-05-08T02:47:14.732Z,4.30
2023-05-08T02:50:09.916Z,5.25
2023-05-08T02:52:49.806Z,4.90
2023-05-08T02:55:23.548Z,5.15
2023-05-08T02:58:12.032Z,5.03
2023-05-08T03:01:01.992Z,4.97
2023-05-08T03:03:39.268Z,5.38
2023-05-08T03:06:14.890Z,5.03
2023-05-08T03:08:43.667Z,5.30
2023-05-08T03:11:18.092Z,4.25
2023-05-08T03:13:48.492Z,4.68
2023-05-08T03:16:22.271Z,4.32
2023-05-08T03:19:09.739Z,4.05
2023-05-08T03:21:40.539Z,4.20
2023-05-08T03:24:09.990Z,4.47
2023-05-08T03:26:38.049Z,4.07
2023-05-08T03:29:06.754Z,3.95
2023-05-08T03:31:36.478Z,3.70
2023-05-08T03:34:05.224Z,4.68
2023-05-08T03:36:32.975Z,4.32
2023-05-08T03:41:28.744Z,4.15
2023-05-08T03:43:57.465Z,4.82
2023-05-08T03:46:26.557Z,3.65
2023-05-08T03:48:55.742Z,4.45
2023-05-08T03:51:23.672Z,3.53
2023-05-08T03:53:52.191Z,4.05
2023-05-08T03:56:19.975Z,4.30
2023-05-08T03:59:01.046Z,4.53
2023-05-08T04:02:12.928Z,4.20
2023-05-08T04:04:44.567Z,3.47
2023-05-08T04:07:27.747Z,4.18
2023-05-08T04:10:03.297Z,4.32
2023-05-08T04:12:53.160Z,3.47
2023-05-08T04:15:26.869Z,3.50
2023-05-08T04:18:00.210Z,3.70
2023-05-08T04:20:30.783Z,3.90
2023-05-08T04:22:59.608Z,4.47
2023-05-08T04:25:29.132Z,3.97
2023-05-08T04:27:58.843Z,2.97
2023-05-08T04:30:27.959Z,3.58
2023-05-08T04:32:58.319Z,3.30
2023-05-08T04:35:26.773Z,3.47
2023-05-08T04:37:55.497Z,3.92
2023-05-08T04:42:51.585Z,3.88
2023-05-08T04:45:20.852Z,4.13
2023-05-08T04:47:48.417Z,4.00
2023-05-08T04:52:44.005Z,3.25
2023-05-08T04:55:11.841Z,3.37
2023-05-08T04:57:39.984Z,3.30
2023-05-08T05:00:09.405Z,2.28
2023-05-08T05:02:40.294Z,2.47
2023-05-08T05:05:08.441Z,2.65
2023-05-08T05:07:36.756Z,3.40
2023-05-08T05:10:04.763Z,3.17
2023-05-08T05:12:35.086Z,2.05
2023-05-08T05:15:03.211Z,2.47
2023-05-08T05:17:35.729Z,2.63
2023-05-08T05:22:33.760Z,1.10
2023-05-08T05:25:04.840Z,1.00
2023-05-08T05:27:37.326Z,1.13
2023-05-08T05:30:07.140Z,1.30
2023-05-08T05:32:34.822Z,1.27
2023-05-08T05:35:02.658Z,1.20
2023-05-08T05:37:33.485Z,1.15
2023-05-08T05:40:01.112Z,1.52
2023-05-08T05:42:32.031Z,1.25
2023-05-08T05:45:00.093Z,1.48
2023-05-08T05:47:27.918Z,1.20
2023-05-08T05:49:55.570Z,2.30
2023-05-08T05:52:22.989Z,1.70
2023-05-08T05:54:50.553Z,1.50
2023-05-08T05:57:18.152Z,1.20
2023-05-08T05:59:45.617Z,1.00
2023-05-08T06:02:18.957Z,1.30
2023-05-08T06:04:47.554Z,1.00
2023-05-08T06:07:15.202Z,0.82
2023-05-08T06:09:42.596Z,1.30
2023-05-08T06:12:12.218Z,1.10
2023-05-08T06:14:39.889Z,0.85
2023-05-08T06:17:07.500Z,1.00
2023-05-08T06:19:35.324Z,1.20
2023-05-08T06:22:03.240Z,0.90
2023-05-08T06:24:30.822Z,1.10
2023-05-08T06:26:58.213Z,1.48
2023-05-08T06:29:25.566Z,1.70
2023-05-08T06:31:52.887Z,0.90
2023-05-08T06:34:20.291Z,0.93
2023-05-08T06:36:47.746Z,1.00
2023-05-08T06:39:15.162Z,1.08
2023-05-08T06:41:42.612Z,1.23
2023-05-08T06:44:10.138Z,0.90
2023-05-08T06:46:37.746Z,1.17
2023-05-08T06:49:05.265Z,1.40
2023-05-08T06:51:33.068Z,2.93
2023-05-08T06:54:01.136Z,1.75
2023-05-08T06:56:28.837Z,1.20
2023-05-08T06:59:07.165Z,0.95
2023-05-08T07:01:37.798Z,1.23
2023-05-08T07:04:06.298Z,1.20
2023-05-08T07:06:34.587Z,1.00
2023-05-08T07:09:02.252Z,1.17
2023-05-08T07:11:29.760Z,1.10
2023-05-08T07:13:57.278Z,0.93
2023-05-08T07:16:24.851Z,0.80
2023-05-08T07:18:52.844Z,1.00
2023-05-08T07:21:21.457Z,0.90
2023-05-08T07:23:51.827Z,0.80
2023-05-08T07:26:19.370Z,0.90
2023-05-08T07:28:46.832Z,1.13
2023-05-08T07:31:14.579Z,0.70
2023-05-08T07:33:42.073Z,0.80
2023-05-08T07:36:09.669Z,0.90
2023-05-08T07:38:37.282Z,0.68
2023-05-08T07:41:05.600Z,0.90
2023-05-08T07:46:00.361Z,0.90
2023-05-08T07:48:27.754Z,1.10
2023-05-08T07:50:55.137Z,1.10
2023-05-08T07:53:22.529Z,0.70
2023-05-08T07:55:49.909Z,1.13
2023-05-08T07:58:17.526Z,0.90
2023-05-08T08:00:46.025Z,0.95
2023-05-08T08:03:13.480Z,0.85
2023-05-08T08:05:42.177Z,0.90
2023-05-08T08:08:09.568Z,1.00
2023-05-08T08:10:37.053Z,5.38
2023-05-08T08:13:04.501Z,2.43
2023-05-08T08:15:32.000Z,2.45
2023-05-08T08:17:59.481Z,2.90
2023-05-08T08:20:26.964Z,1.58
2023-05-08T08:22:54.927Z,0.63
2023-05-08T08:25:22.607Z,0.77
2023-05-08T08:27:49.983Z,0.70
2023-05-08T08:30:18.563Z,0.80
2023-05-08T08:32:46.661Z,0.75
2023-05-08T08:35:15.101Z,0.60
2023-05-08T08:37:43.516Z,0.70
2023-05-08T08:40:11.297Z,0.77
2023-05-08T08:42:38.715Z,1.08
2023-05-08T08:45:07.140Z,1.88
2023-05-08T08:47:38.085Z,0.90
2023-05-08T08:50:08.132Z,0.90
2023-05-08T08:53:07.503Z,1.15
2023-05-08T08:55:40.867Z,2.10
2023-05-08T08:58:27.784Z,0.93
2023-05-08T09:00:56.414Z,4.32
2023-05-08T09:03:24.177Z,2.50
2023-05-08T09:05:52.096Z,6.00
2023-05-08T09:08:19.788Z,1.95
2023-05-08T09:10:47.463Z,1.30
2023-05-08T09:13:16.586Z,0.60
2023-05-08T09:15:44.947Z,2.30
2023-05-08T09:18:12.471Z,0.90
2023-05-08T09:20:41.582Z,0.70
2023-05-08T09:23:09.368Z,1.05
2023-05-08T09:25:45.258Z,1.02
2023-05-08T09:28:21.672Z,0.50
2023-05-08T09:30:59.909Z,0.93
2023-05-08T09:33:29.884Z,0.80
2023-05-08T09:35:57.849Z,0.70
2023-05-08T09:38:40.528Z,1.40
2023-05-08T09:41:16.475Z,1.10
2023-05-08T09:44:00.176Z,0.80
2023-05-08T09:46:28.070Z,0.60
2023-05-08T09:49:01.058Z,1.00
2023-05-08T09:51:31.945Z,1.10
2023-05-08T09:54:00.587Z,1.00
2023-05-08T09:56:34.894Z,1.13
2023-05-08T09:59:04.943Z,2.05
2023-05-08T10:01:34.357Z,5.82
2023-05-08T10:04:03.805Z,1.65
2023-05-08T10:06:31.326Z,1.20
2023-05-08T10:09:13.910Z,1.63
2023-05-08T10:11:52.096Z,1.25
2023-05-08T10:14:20.668Z,1.00
2023-05-08T10:16:51.901Z,1.00
2023-05-08T10:19:22.443Z,1.10
2023-05-08T10:21:52.787Z,1.23
2023-05-08T10:24:41.490Z,0.95
2023-05-08T10:27:24.611Z,1.20
2023-05-08T10:29:56.873Z,0.85
2023-05-08T10:32:26.194Z,0.90
2023-05-08T10:34:56.916Z,0.80
2023-05-08T10:37:24.360Z,0.80
2023-05-08T10:39:54.060Z,0.70
2023-05-08T10:42:22.408Z,0.82
2023-05-08T10:47:45.922Z,0.73
2023-05-08T10:50:47.502Z,0.80
2023-05-08T10:53:41.030Z,0.75
2023-05-08T10:56:09.621Z,0.70
2023-05-08T10:58:39.528Z,0.60
2023-05-08T11:01:10.703Z,1.02
2023-05-08T11:03:47.418Z,0.85
2023-05-08T11:06:15.454Z,0.80
2023-05-08T11:08:49.023Z,0.90
2023-05-08T11:11:33.814Z,10.65
2023-05-08T11:14:07.252Z,1.75
2023-05-08T11:17:02.235Z,1.50
2023-05-08T11:19:30.445Z,3.33
2023-05-08T11:22:22.183Z,3.28
2023-05-08T11:24:55.049Z,1.73
2023-05-08T11:27:51.085Z,1.80
2023-05-08T11:30:35.335Z,3.80
2023-05-08T11:33:06.187Z,1.20
2023-05-08T11:35:49.472Z,7.53
2023-05-08T11:38:36.363Z,3.10
2023-05-08T11:41:07.083Z,4.05
2023-05-08T11:43:34.404Z,3.22
2023-05-08T11:46:18.307Z,5.68
2023-05-08T11:48:45.978Z,3.45
2023-05-08T11:51:16.345Z,6.18
2023-05-08T11:53:44.695Z,5.07
2023-05-08T11:56:12.190Z,3.17
2023-05-08T11:58:39.623Z,1.40
2023-05-08T12:01:07.111Z,1.07
2023-05-08T12:03:34.726Z,1.88
2023-05-08T12:06:02.259Z,5.45
2023-05-08T12:08:29.702Z,1.10
2023-05-08T12:10:58.717Z,2.70
2023-05-08T12:13:30.503Z,1.08
2023-05-08T12:16:01.172Z,1.33
2023-05-08T12:18:30.674Z,2.53
2023-05-08T12:21:00.895Z,1.40
2023-05-08T12:23:30.061Z,1.23
2023-05-08T12:26:01.718Z,3.97
2023-05-08T12:28:32.413Z,2.28
2023-05-08T12:31:00.125Z,4.18
2023-05-08T12:33:28.836Z,1.20
2023-05-08T12:35:57.152Z,1.33
2023-05-08T12:38:28.246Z,1.40
2023-05-08T12:40:56.229Z,0.90
2023-05-08T12:43:37.006Z,1.27
2023-05-08T12:46:05.388Z,4.57
2023-05-08T12:48:32.938Z,2.15
2023-05-08T12:51:05.296Z,1.60
2023-05-08T12:53:33.666Z,2.60
2023-05-08T12:58:34.855Z,2.28
2023-05-08T13:01:13.832Z,1.30
2023-05-08T13:03:42.112Z,1.48
2023-05-08T13:06:23.435Z,1.30
2023-05-08T13:08:55.431Z,2.25
2023-05-08T13:11:34.520Z,1.50
2023-05-08T13:14:02.196Z,1.70
2023-05-08T13:16:29.789Z,1.87
2023-05-08T13:18:57.228Z,2.05
2023-05-08T13:21:27.069Z,1.42
2023-05-08T13:23:57.001Z,1.30
2023-05-08T13:26:25.846Z,1.58
2023-05-08T13:28:56.233Z,1.00
2023-05-08T13:31:24.751Z,1.80
2023-05-08T13:33:52.148Z,1.60
2023-05-08T13:36:20.862Z,0.98
2023-05-08T13:38:48.502Z,1.50
2023-05-08T13:41:15.869Z,1.30
2023-05-08T13:43:43.794Z,1.50
2023-05-08T13:46:11.263Z,1.20
2023-05-08T13:48:38.860Z,1.02
2023-05-08T13:51:06.324Z,5.00
2023-05-08T13:53:33.987Z,2.40
2023-05-08T13:56:01.711Z,2.47
2023-05-08T13:58:29.328Z,0.68
2023-05-08T14:00:56.776Z,2.40
2023-05-08T14:03:24.378Z,1.13
2023-05-08T14:05:51.865Z,1.00
2023-05-08T14:08:19.253Z,1.20
2023-05-08T14:10:47.251Z,1.02
2023-05-08T14:13:14.705Z,1.00
2023-05-08T14:15:42.378Z,1.00
2023-05-08T14:18:09.883Z,0.90
2023-05-08T14:20:37.331Z,1.77
2023-05-08T14:23:04.803Z,1.00
2023-05-08T14:25:32.238Z,17.80
2023-05-08T14:27:59.659Z,1.40
2023-05-08T14:30:27.300Z,1.10
2023-05-08T14:32:54.841Z,1.10
2023-05-08T14:35:22.275Z,1.15
2023-05-08T14:37:50.073Z,1.08
2023-05-08T14:40:17.556Z,1.40
2023-05-08T14:42:45.103Z,1.83
2023-05-08T14:45:13.014Z,2.40
2023-05-08T14:50:08.972Z,3.13
2023-05-08T14:52:36.376Z,1.40
2023-05-08T14:55:04.396Z,1.40
2023-05-08T14:57:32.313Z,2.33
2023-05-08T14:59:59.631Z,1.65
2023-05-08T15:02:27.135Z,1.53
2023-05-08T15:04:54.552Z,1.67
2023-05-08T15:07:22.010Z,1.30
2023-05-08T15:09:49.496Z,1.70
2023-05-08T15:12:16.944Z,1.70
2023-05-08T15:14:44.314Z,1.55
2023-05-08T15:17:11.749Z,14.13
2023-05-08T15:19:39.128Z,2.03
2023-05-08T15:22:06.585Z,3.37
2023-05-08T15:24:34.199Z,1.10
2023-05-08T15:27:01.617Z,1.45
2023-05-08T15:29:29.109Z,4.50
2023-05-08T15:31:56.848Z,6.10
2023-05-08T15:34:26.506Z,4.80
2023-05-08T15:36:56.620Z,1.40
2023-05-08T15:39:24.038Z,1.53
2023-05-08T15:41:51.438Z,1.60
2023-05-08T15:44:22.156Z,1.40
2023-05-08T15:46:50.229Z,1.55
2023-05-08T15:49:17.638Z,1.90
2023-05-08T15:51:45.065Z,1.40
2023-05-08T15:54:12.469Z,1.60
2023-05-08T15:56:39.956Z,1.47
2023-05-08T15:59:07.458Z,1.10
2023-05-08T16:01:34.929Z,2.00
2023-05-08T16:04:02.495Z,1.90
2023-05-08T16:06:30.032Z,2.28
2023-05-08T16:08:57.614Z,3.20
2023-05-08T16:11:25.042Z,4.40
2023-05-08T16:13:52.541Z,1.93
2023-05-08T16:16:20.178Z,1.60
2023-05-08T16:18:47.668Z,2.53
2023-05-08T16:21:15.080Z,4.40
2023-05-08T16:23:42.470Z,2.60
2023-05-08T16:26:09.913Z,5.33
2023-05-08T16:28:37.341Z,4.78
2023-05-08T16:31:06.314Z,5.27
2023-05-08T16:33:33.742Z,4.30
2023-05-08T16:36:01.121Z,4.60
2023-05-08T16:38:28.515Z,4.60
2023-05-08T16:41:05.921Z,3.67
2023-05-08T16:43:33.432Z,3.90
2023-05-08T16:46:01.608Z,2.67
2023-05-08T16:48:30.582Z,2.50
2023-05-08T16:53:27.466Z,2.78
2023-05-08T16:55:55.613Z,1.98
2023-05-08T16:58:23.112Z,7.75
2023-05-08T17:00:50.929Z,7.15
2023-05-08T17:03:18.424Z,7.15
2023-05-08T17:05:45.854Z,6.80
2023-05-08T17:08:13.308Z,5.25
2023-05-08T17:10:41.560Z,6.47
2023-05-08T17:13:09.001Z,3.88
2023-05-08T17:15:36.723Z,4.10
2023-05-08T17:18:04.282Z,4.45
2023-05-08T17:20:31.879Z,6.07
2023-05-08T17:22:59.478Z,7.20
2023-05-08T17:25:26.953Z,7.97
2023-05-08T17:27:57.800Z,6.60
2023-05-08T17:30:26.561Z,6.53
2023-05-08T17:32:55.652Z,8.48
2023-05-08T17:35:24.661Z,7.85
2023-05-08T17:37:52.049Z,6.18
2023-05-08T17:40:19.675Z,6.83
2023-05-08T17:42:47.847Z,5.75
2023-05-08T17:45:15.488Z,6.70
2023-05-08T17:47:42.901Z,6.72
2023-05-08T17:50:11.534Z,8.57
2023-05-08T17:52:39.653Z,7.40
2023-05-08T17:55:08.265Z,4.17
2023-05-08T17:57:35.853Z,7.00
2023-05-08T18:00:04.838Z,3.42
2023-05-08T18:02:36.816Z,3.03
2023-05-08T18:05:06.026Z,3.10
2023-05-08T18:07:33.867Z,4.78
2023-05-08T18:10:01.342Z,4.88
2023-05-08T18:12:33.176Z,5.10
2023-05-08T18:17:29.785Z,4.60
2023-05-08T18:19:57.231Z,5.13
2023-05-08T18:22:24.971Z,4.87
2023-05-08T18:24:54.441Z,4.40
2023-05-08T18:27:21.816Z,5.13
2023-05-08T18:29:50.714Z,4.33
2023-05-08T18:32:19.426Z,4.18
2023-05-08T18:34:47.173Z,5.55
2023-05-08T18:37:14.737Z,6.05
2023-05-08T18:39:42.148Z,4.43
2023-05-08T18:42:09.538Z,4.80
2023-05-08T18:44:37.513Z,4.45
2023-05-08T18:47:05.572Z,14.97
2023-05-08T18:49:33.766Z,6.55
2023-05-08T18:52:01.229Z,4.90
2023-05-08T18:54:30.008Z,4.57
2023-05-08T18:56:57.470Z,4.18
2023-05-08T18:59:26.760Z,4.60
2023-05-08T19:01:54.122Z,4.25
2023-05-08T19:04:21.682Z,4.35
2023-05-08T19:06:49.131Z,6.68
2023-05-08T19:09:16.585Z,6.93
2023-05-08T19:11:43.961Z,4.30
2023-05-08T19:14:11.340Z,5.35
2023-05-08T19:16:38.737Z,5.53
2023-05-08T19:19:06.206Z,4.80
2023-05-08T19:21:35.209Z,4.73
2023-05-08T19:24:02.737Z,4.63
2023-05-08T19:26:30.361Z,4.45
2023-05-08T19:28:57.746Z,4.63
2023-05-08T19:31:25.167Z,5.30
2023-05-08T19:33:52.542Z,5.30
2023-05-08T19:36:19.912Z,5.00
2023-05-08T19:38:49.034Z,4.85
2023-05-08T19:41:18.002Z,4.80
2023-05-08T19:43:45.528Z,5.30
2023-05-08T19:46:12.976Z,4.60
2023-05-08T19:48:40.443Z,4.97
2023-05-08T19:51:09.313Z,5.10
2023-05-08T19:53:36.743Z,4.65
2023-05-08T19:56:04.149Z,4.50
2023-05-08T19:58:32.010Z,4.40
2023-05-08T20:00:59.454Z,4.78
2023-05-08T20:03:27.040Z,4.60
2023-05-08T20:05:54.617Z,4.70
2023-05-08T20:08:22.116Z,4.37
2023-05-08T20:10:49.603Z,4.13
2023-05-08T20:13:17.967Z,5.57
2023-05-08T20:15:45.613Z,4.60
2023-05-08T20:18:13.198Z,5.28
2023-05-08T20:20:40.595Z,6.17
2023-05-08T20:23:08.319Z,5.35
2023-05-08T20:25:35.786Z,5.18
2023-05-08T20:28:03.463Z,6.13
2023-05-08T20:30:31.046Z,6.18
2023-05-08T20:33:04.703Z,5.13
2023-05-08T20:35:33.773Z,5.80
2023-05-08T20:38:01.285Z,7.53
2023-05-08T20:40:28.881Z,6.78
2023-05-08T20:42:56.284Z,6.67
2023-05-08T20:45:23.850Z,8.03
2023-05-08T20:47:51.369Z,7.32
2023-05-08T20:50:18.996Z,7.68
2023-05-08T20:52:46.524Z,8.65
2023-05-08T20:55:14.318Z,9.03
2023-05-08T20:57:42.292Z,8.90
2023-05-08T21:00:10.294Z,8.65
2023-05-08T21:02:40.274Z,9.18
2023-05-08T21:05:08.340Z,8.13
2023-05-08T21:07:36.382Z,8.07
2023-05-08T21:10:04.322Z,8.43
2023-05-08T21:12:32.922Z,8.82
2023-05-08T21:15:00.442Z,10.13
2023-05-08T21:21:20.187Z,9.77
2023-05-08T21:23:47.672Z,10.57
2023-05-08T21:26:15.171Z,10.87
2023-05-08T21:28:42.703Z,10.00
2023-05-08T21:31:10.311Z,9.55
2023-05-08T21:33:38.077Z,9.07
2023-05-08T21:36:05.868Z,9.82
2023-05-08T21:38:33.349Z,8.90
2023-05-08T21:41:08.536Z,9.80
2023-05-08T21:43:37.015Z,9.95
2023-05-08T21:46:06.400Z,12.10
2023-05-08T21:48:34.483Z,9.98
2023-05-08T21:51:02.813Z,9.15
2023-05-08T21:53:30.387Z,9.75
2023-05-08T21:55:57.858Z,9.13
2023-05-08T21:58:25.418Z,10.57
2023-05-08T22:00:52.972Z,9.00
2023-05-08T22:03:20.700Z,9.93
2023-05-08T22:05:48.258Z,11.13
2023-05-08T22:08:15.753Z,10.10
2023-05-08T22:10:44.437Z,10.37
2023-05-08T22:13:13.040Z,10.60
2023-05-08T22:15:40.698Z,10.55
2023-05-08T22:18:08.207Z,10.05
2023-05-08T22:20:35.781Z,9.05
2023-05-08T22:23:03.415Z,9.93
2023-05-08T22:25:30.970Z,10.53
2023-05-08T22:27:58.748Z,10.13
2023-05-08T22:30:26.392Z,10.38
2023-05-08T22:32:57.962Z,10.38
2023-05-08T22:35:29.944Z,11.02
2023-05-08T22:37:58.286Z,10.55
2023-05-08T22:40:26.970Z,10.00
2023-05-08T22:42:56.176Z,8.88
2023-05-08T22:45:24.023Z,9.00
2023-05-08T22:47:52.014Z,8.77
2023-05-08T22:50:19.855Z,8.93
2023-05-08T22:52:47.612Z,10.32
2023-05-08T22:55:16.125Z,9.63
2023-05-08T22:57:44.106Z,9.35
2023-05-08T23:00:12.635Z,10.45
2023-05-08T23:02:40.289Z,11.48
2023-05-08T23:05:08.640Z,10.10
2023-05-08T23:07:36.215Z,10.15
2023-05-08T23:10:03.772Z,9.10
2023-05-08T23:12:32.191Z,10.35
2023-05-08T23:14:59.787Z,9.52
2023-05-08T23:17:27.305Z,8.93
2023-05-08T23:19:54.824Z,10.07
2023-05-08T23:22:22.390Z,10.68
2023-05-08T23:24:49.864Z,8.90
2023-05-08T23:27:17.482Z,8.90
2023-05-08T23:29:44.999Z,8.75
2023-05-08T23:32:14.168Z,9.13
2023-05-08T23:34:45.237Z,8.63
2023-05-08T23:37:13.055Z,8.32
2023-05-08T23:39:41.633Z,7.53
2023-05-08T23:42:09.502Z,7.68
2023-05-08T23:44:37.490Z,9.10
2023-05-08T23:47:05.024Z,8.18
2023-05-08T23:49:32.502Z,7.20
2023-05-08T23:52:00.175Z,8.00
2023-05-08T23:54:27.724Z,9.15
2023-05-08T23:56:55.181Z,8.90
2023-05-08T23:59:22.654Z,7.80
